sensor_id;sensor_type;location;lat;lon;timestamp;P1;durP1;ratioP1;P2;durP2;ratioP2
20731;SDS011;10527;52.124;5.196;2022-08-19T00:02:09;3.17;;;1.67;;
20731;SDS011;10527;52.124;5.196;2022-08-19T00:04:40;2.78;;;2.10;;
20731;SDS011;10527;52.124;5.196;2022-08-19T00:07:07;2.28;;;2.00;;
20731;SDS011;10527;52.124;5.196;2022-08-19T00:09:36;2.30;;;1.70;;
20731;SDS011;10527;52.124;5.196;2022-08-19T00:12:03;2.33;;;1.45;;
20731;SDS011;10527;52.124;5.196;2022-08-19T00:14:30;4.13;;;2.10;;
20731;SDS011;10527;52.124;5.196;2022-08-19T00:16:58;2.95;;;1.65;;
20731;SDS011;10527;52.124;5.196;2022-08-19T00:19:26;2.17;;;1.63;;
20731;SDS011;10527;52.124;5.196;2022-08-19T00:21:53;9.98;;;3.15;;
20731;SDS011;10527;52.124;5.196;2022-08-19T00:24:22;1.95;;;1.75;;
20731;SDS011;10527;52.124;5.196;2022-08-19T00:26:49;1.80;;;1.70;;
20731;SDS011;10527;52.124;5.196;2022-08-19T00:29:18;1.83;;;1.70;;
20731;SDS011;10527;52.124;5.196;2022-08-19T00:31:47;2.50;;;1.95;;
20731;SDS011;10527;52.124;5.196;2022-08-19T00:34:16;1.90;;;1.80;;
20731;SDS011;10527;52.124;5.196;2022-08-19T00:36:43;3.65;;;1.60;;
20731;SDS011;10527;52.124;5.196;2022-08-19T00:39:11;2.03;;;1.83;;
20731;SDS011;10527;52.124;5.196;2022-08-19T00:41:40;2.05;;;1.85;;
20731;SDS011;10527;52.124;5.196;2022-08-19T00:46:48;2.30;;;1.95;;
20731;SDS011;10527;52.124;5.196;2022-08-19T00:49:25;2.80;;;2.15;;
20731;SDS011;10527;52.124;5.196;2022-08-19T00:51:55;2.08;;;1.88;;
20731;SDS011;10527;52.124;5.196;2022-08-19T00:54:31;2.45;;;2.25;;
20731;SDS011;10527;52.124;5.196;2022-08-19T00:57:07;4.50;;;2.38;;
20731;SDS011;10527;52.124;5.196;2022-08-19T00:59:41;2.63;;;1.92;;
20731;SDS011;10527;52.124;5.196;2022-08-19T01:02:28;2.45;;;2.20;;
20731;SDS011;10527;52.124;5.196;2022-08-19T01:04:57;2.95;;;2.13;;
20731;SDS011;10527;52.124;5.196;2022-08-19T01:07:27;3.15;;;2.47;;
20731;SDS011;10527;52.124;5.196;2022-08-19T01:10:03;2.90;;;2.00;;
20731;SDS011;10527;52.124;5.196;2022-08-19T01:12:40;3.05;;;1.85;;
20731;SDS011;10527;52.124;5.196;2022-08-19T01:15:08;2.42;;;2.22;;
20731;SDS011;10527;52.124;5.196;2022-08-19T01:17:39;3.78;;;2.03;;
20731;SDS011;10527;52.124;5.196;2022-08-19T01:20:12;3.08;;;2.42;;
20731;SDS011;10527;52.124;5.196;2022-08-19T01:25:15;2.40;;;2.20;;
20731;SDS011;10527;52.124;5.196;2022-08-19T01:27:47;2.45;;;2.00;;
20731;SDS011;10527;52.124;5.196;2022-08-19T01:30:27;2.53;;;2.33;;
20731;SDS011;10527;52.124;5.196;2022-08-19T01:33:00;3.10;;;2.00;;
20731;SDS011;10527;52.124;5.196;2022-08-19T01:35:31;2.15;;;1.95;;
20731;SDS011;10527;52.124;5.196;2022-08-19T01:37:59;4.03;;;2.50;;
20731;SDS011;10527;52.124;5.196;2022-08-19T01:40:38;2.30;;;1.90;;
20731;SDS011;10527;52.124;5.196;2022-08-19T01:43:06;2.63;;;2.25;;
20731;SDS011;10527;52.124;5.196;2022-08-19T01:45:33;2.33;;;2.03;;
20731;SDS011;10527;52.124;5.196;2022-08-19T01:48:02;2.17;;;1.98;;
20731;SDS011;10527;52.124;5.196;2022-08-19T01:50:31;2.47;;;2.28;;
20731;SDS011;10527;52.124;5.196;2022-08-19T01:53:00;4.72;;;1.90;;
20731;SDS011;10527;52.124;5.196;2022-08-19T01:55:34;3.35;;;2.17;;
20731;SDS011;10527;52.124;5.196;2022-08-19T01:58:08;2.50;;;1.98;;
20731;SDS011;10527;52.124;5.196;2022-08-19T02:00:47;2.63;;;2.17;;
20731;SDS011;10527;52.124;5.196;2022-08-19T02:03:15;2.70;;;2.20;;
20731;SDS011;10527;52.124;5.196;2022-08-19T02:05:43;2.22;;;1.95;;
20731;SDS011;10527;52.124;5.196;2022-08-19T02:08:12;2.10;;;1.77;;
20731;SDS011;10527;52.124;5.196;2022-08-19T02:10:40;2.40;;;2.10;;
20731;SDS011;10527;52.124;5.196;2022-08-19T02:13:10;2.25;;;1.95;;
20731;SDS011;10527;52.124;5.196;2022-08-19T02:15:39;2.75;;;2.40;;
20731;SDS011;10527;52.124;5.196;2022-08-19T02:18:08;2.28;;;2.08;;
20731;SDS011;10527;52.124;5.196;2022-08-19T02:20:35;2.78;;;2.15;;
20731;SDS011;10527;52.124;5.196;2022-08-19T02:23:04;2.38;;;2.17;;
20731;SDS011;10527;52.124;5.196;2022-08-19T02:25:41;4.10;;;2.35;;
20731;SDS011;10527;52.124;5.196;2022-08-19T02:28:11;5.53;;;2.55;;
20731;SDS011;10527;52.124;5.196;2022-08-19T02:30:44;2.40;;;2.20;;
20731;SDS011;10527;52.124;5.196;2022-08-19T02:33:14;4.07;;;2.30;;
20731;SDS011;10527;52.124;5.196;2022-08-19T02:35:43;3.00;;;2.13;;
20731;SDS011;10527;52.124;5.196;2022-08-19T02:38:12;3.33;;;2.10;;
20731;SDS011;10527;52.124;5.196;2022-08-19T02:40:53;5.63;;;2.45;;
20731;SDS011;10527;52.124;5.196;2022-08-19T02:43:26;3.45;;;2.47;;
20731;SDS011;10527;52.124;5.196;2022-08-19T02:45:59;3.15;;;2.80;;
20731;SDS011;10527;52.124;5.196;2022-08-19T02:48:28;3.05;;;2.17;;
20731;SDS011;10527;52.124;5.196;2022-08-19T02:50:54;2.53;;;1.75;;
20731;SDS011;10527;52.124;5.196;2022-08-19T02:53:22;3.30;;;2.58;;
20731;SDS011;10527;52.124;5.196;2022-08-19T02:55:52;2.80;;;2.50;;
20731;SDS011;10527;52.124;5.196;2022-08-19T02:58:20;4.03;;;2.45;;
20731;SDS011;10527;52.124;5.196;2022-08-19T03:00:49;4.38;;;2.20;;
20731;SDS011;10527;52.124;5.196;2022-08-19T03:03:19;2.70;;;2.28;;
20731;SDS011;10527;52.124;5.196;2022-08-19T03:05:47;2.53;;;2.28;;
20731;SDS011;10527;52.124;5.196;2022-08-19T03:08:22;3.75;;;3.13;;
20731;SDS011;10527;52.124;5.196;2022-08-19T03:10:50;3.05;;;2.22;;
20731;SDS011;10527;52.124;5.196;2022-08-19T03:13:18;2.72;;;2.53;;
20731;SDS011;10527;52.124;5.196;2022-08-19T03:15:46;3.30;;;2.67;;
20731;SDS011;10527;52.124;5.196;2022-08-19T03:18:14;3.20;;;2.85;;
20731;SDS011;10527;52.124;5.196;2022-08-19T03:20:44;2.97;;;2.75;;
20731;SDS011;10527;52.124;5.196;2022-08-19T03:23:14;3.78;;;3.03;;
20731;SDS011;10527;52.124;5.196;2022-08-19T03:25:44;3.35;;;2.97;;
20731;SDS011;10527;52.124;5.196;2022-08-19T03:28:34;4.75;;;2.95;;
20731;SDS011;10527;52.124;5.196;2022-08-19T03:31:03;3.80;;;2.67;;
20731;SDS011;10527;52.124;5.196;2022-08-19T03:33:54;4.15;;;3.20;;
20731;SDS011;10527;52.124;5.196;2022-08-19T03:36:23;3.40;;;3.10;;
20731;SDS011;10527;52.124;5.196;2022-08-19T03:38:57;5.18;;;2.83;;
20731;SDS011;10527;52.124;5.196;2022-08-19T03:41:28;3.72;;;3.08;;
20731;SDS011;10527;52.124;5.196;2022-08-19T03:44:12;3.85;;;2.97;;
20731;SDS011;10527;52.124;5.196;2022-08-19T03:46:44;3.50;;;2.88;;
20731;SDS011;10527;52.124;5.196;2022-08-19T03:49:21;4.38;;;2.90;;
20731;SDS011;10527;52.124;5.196;2022-08-19T03:51:54;3.13;;;2.83;;
20731;SDS011;10527;52.124;5.196;2022-08-19T03:54:24;3.70;;;2.83;;
20731;SDS011;10527;52.124;5.196;2022-08-19T03:56:52;4.00;;;3.08;;
20731;SDS011;10527;52.124;5.196;2022-08-19T03:59:26;3.13;;;2.80;;
20731;SDS011;10527;52.124;5.196;2022-08-19T04:01:59;3.53;;;2.88;;
20731;SDS011;10527;52.124;5.196;2022-08-19T04:04:31;2.72;;;2.53;;
20731;SDS011;10527;52.124;5.196;2022-08-19T04:06:58;4.07;;;3.30;;
20731;SDS011;10527;52.124;5.196;2022-08-19T04:09:25;5.45;;;3.13;;
20731;SDS011;10527;52.124;5.196;2022-08-19T04:11:53;3.92;;;3.15;;
20731;SDS011;10527;52.124;5.196;2022-08-19T04:14:23;6.00;;;3.35;;
20731;SDS011;10527;52.124;5.196;2022-08-19T04:16:56;5.10;;;3.70;;
20731;SDS011;10527;52.124;5.196;2022-08-19T04:19:26;4.43;;;3.85;;
20731;SDS011;10527;52.124;5.196;2022-08-19T04:21:56;4.70;;;3.22;;
20731;SDS011;10527;52.124;5.196;2022-08-19T04:24:24;4.05;;;3.50;;
20731;SDS011;10527;52.124;5.196;2022-08-19T04:26:51;5.55;;;3.83;;
20731;SDS011;10527;52.124;5.196;2022-08-19T04:29:23;4.85;;;3.80;;
20731;SDS011;10527;52.124;5.196;2022-08-19T04:31:55;5.07;;;3.75;;
20731;SDS011;10527;52.124;5.196;2022-08-19T04:34:25;4.80;;;3.35;;
20731;SDS011;10527;52.124;5.196;2022-08-19T04:36:57;6.90;;;3.92;;
20731;SDS011;10527;52.124;5.196;2022-08-19T04:39:26;6.10;;;4.10;;
20731;SDS011;10527;52.124;5.196;2022-08-19T04:42:15;4.90;;;4.40;;
20731;SDS011;10527;52.124;5.196;2022-08-19T04:45:03;6.88;;;4.70;;
20731;SDS011;10527;52.124;5.196;2022-08-19T04:47:40;5.55;;;4.38;;
20731;SDS011;10527;52.124;5.196;2022-08-19T04:50:24;5.55;;;4.45;;
20731;SDS011;10527;52.124;5.196;2022-08-19T04:52:52;6.55;;;4.80;;
20731;SDS011;10527;52.124;5.196;2022-08-19T04:55:21;6.65;;;5.38;;
20731;SDS011;10527;52.124;5.196;2022-08-19T04:57:51;7.05;;;5.28;;
20731;SDS011;10527;52.124;5.196;2022-08-19T05:00:18;6.53;;;5.82;;
20731;SDS011;10527;52.124;5.196;2022-08-19T05:02:45;6.40;;;5.47;;
20731;SDS011;10527;52.124;5.196;2022-08-19T05:05:12;7.32;;;6.03;;
20731;SDS011;10527;52.124;5.196;2022-08-19T05:07:40;7.45;;;5.65;;
20731;SDS011;10527;52.124;5.196;2022-08-19T05:10:07;10.10;;;5.90;;
20731;SDS011;10527;52.124;5.196;2022-08-19T05:12:34;6.63;;;5.28;;
20731;SDS011;10527;52.124;5.196;2022-08-19T05:15:04;6.70;;;4.53;;
20731;SDS011;10527;52.124;5.196;2022-08-19T05:17:34;6.70;;;5.60;;
20731;SDS011;10527;52.124;5.196;2022-08-19T05:20:06;7.20;;;5.85;;
20731;SDS011;10527;52.124;5.196;2022-08-19T05:23:06;6.78;;;5.32;;
20731;SDS011;10527;52.124;5.196;2022-08-19T05:25:39;6.35;;;5.68;;
20731;SDS011;10527;52.124;5.196;2022-08-19T05:28:09;6.40;;;5.25;;
20731;SDS011;10527;52.124;5.196;2022-08-19T05:30:36;7.50;;;6.18;;
20731;SDS011;10527;52.124;5.196;2022-08-19T05:33:12;7.45;;;5.60;;
20731;SDS011;10527;52.124;5.196;2022-08-19T05:35:40;6.05;;;5.45;;
20731;SDS011;10527;52.124;5.196;2022-08-19T05:38:07;6.78;;;5.35;;
20731;SDS011;10527;52.124;5.196;2022-08-19T05:40:34;6.60;;;5.55;;
20731;SDS011;10527;52.124;5.196;2022-08-19T05:43:03;6.50;;;5.28;;
20731;SDS011;10527;52.124;5.196;2022-08-19T05:45:37;6.97;;;5.15;;
20731;SDS011;10527;52.124;5.196;2022-08-19T05:48:06;7.65;;;6.05;;
20731;SDS011;10527;52.124;5.196;2022-08-19T05:50:32;7.28;;;5.88;;
20731;SDS011;10527;52.124;5.196;2022-08-19T05:53:01;7.28;;;5.78;;
20731;SDS011;10527;52.124;5.196;2022-08-19T05:55:28;11.90;;;7.40;;
20731;SDS011;10527;52.124;5.196;2022-08-19T05:57:55;10.50;;;7.18;;
20731;SDS011;10527;52.124;5.196;2022-08-19T06:00:22;9.88;;;7.78;;
20731;SDS011;10527;52.124;5.196;2022-08-19T06:02:50;10.07;;;8.30;;
20731;SDS011;10527;52.124;5.196;2022-08-19T06:05:17;14.60;;;10.52;;
20731;SDS011;10527;52.124;5.196;2022-08-19T06:07:44;16.58;;;12.27;;
20731;SDS011;10527;52.124;5.196;2022-08-19T06:10:11;16.05;;;12.48;;
20731;SDS011;10527;52.124;5.196;2022-08-19T06:12:40;18.50;;;14.18;;
20731;SDS011;10527;52.124;5.196;2022-08-19T06:15:08;21.35;;;14.70;;
20731;SDS011;10527;52.124;5.196;2022-08-19T06:17:41;22.80;;;14.48;;
20731;SDS011;10527;52.124;5.196;2022-08-19T06:20:13;22.23;;;16.40;;
20731;SDS011;10527;52.124;5.196;2022-08-19T06:22:41;32.55;;;19.05;;
20731;SDS011;10527;52.124;5.196;2022-08-19T06:25:17;37.80;;;22.30;;
20731;SDS011;10527;52.124;5.196;2022-08-19T06:27:44;44.88;;;24.70;;
20731;SDS011;10527;52.124;5.196;2022-08-19T06:30:35;40.20;;;24.70;;
20731;SDS011;10527;52.124;5.196;2022-08-19T06:33:03;45.50;;;26.92;;
20731;SDS011;10527;52.124;5.196;2022-08-19T06:35:40;47.58;;;27.25;;
20731;SDS011;10527;52.124;5.196;2022-08-19T06:38:09;46.45;;;26.15;;
20731;SDS011;10527;52.124;5.196;2022-08-19T06:40:37;45.30;;;27.45;;
20731;SDS011;10527;52.124;5.196;2022-08-19T06:43:04;45.72;;;26.92;;
20731;SDS011;10527;52.124;5.196;2022-08-19T06:45:36;48.70;;;26.73;;
20731;SDS011;10527;52.124;5.196;2022-08-19T06:48:06;47.55;;;27.25;;
20731;SDS011;10527;52.124;5.196;2022-08-19T06:50:35;48.08;;;26.77;;
20731;SDS011;10527;52.124;5.196;2022-08-19T06:53:06;43.45;;;25.00;;
20731;SDS011;10527;52.124;5.196;2022-08-19T06:55:33;41.40;;;25.08;;
20731;SDS011;10527;52.124;5.196;2022-08-19T06:58:02;51.83;;;27.02;;
20731;SDS011;10527;52.124;5.196;2022-08-19T07:00:30;48.83;;;27.33;;
20731;SDS011;10527;52.124;5.196;2022-08-19T07:02:58;44.72;;;26.30;;
20731;SDS011;10527;52.124;5.196;2022-08-19T07:05:37;45.83;;;24.88;;
20731;SDS011;10527;52.124;5.196;2022-08-19T07:08:12;43.75;;;25.20;;
20731;SDS011;10527;52.124;5.196;2022-08-19T07:10:42;42.67;;;25.80;;
20731;SDS011;10527;52.124;5.196;2022-08-19T07:13:10;40.97;;;25.50;;
20731;SDS011;10527;52.124;5.196;2022-08-19T07:15:38;40.97;;;24.20;;
20731;SDS011;10527;52.124;5.196;2022-08-19T07:18:07;39.45;;;24.23;;
20731;SDS011;10527;52.124;5.196;2022-08-19T07:20:37;41.60;;;25.08;;
20731;SDS011;10527;52.124;5.196;2022-08-19T07:23:07;36.22;;;23.58;;
20731;SDS011;10527;52.124;5.196;2022-08-19T07:25:42;38.95;;;23.17;;
20731;SDS011;10527;52.124;5.196;2022-08-19T07:28:09;35.67;;;23.30;;
20731;SDS011;10527;52.124;5.196;2022-08-19T07:30:49;41.20;;;25.00;;
20731;SDS011;10527;52.124;5.196;2022-08-19T07:33:18;39.92;;;25.27;;
20731;SDS011;10527;52.124;5.196;2022-08-19T07:35:45;37.70;;;24.50;;
20731;SDS011;10527;52.124;5.196;2022-08-19T07:38:12;37.55;;;24.27;;
20731;SDS011;10527;52.124;5.196;2022-08-19T07:40:39;39.20;;;24.05;;
20731;SDS011;10527;52.124;5.196;2022-08-19T07:43:07;37.85;;;24.30;;
20731;SDS011;10527;52.124;5.196;2022-08-19T07:45:39;41.80;;;24.98;;
20731;SDS011;10527;52.124;5.196;2022-08-19T07:48:06;38.45;;;24.05;;
20731;SDS011;10527;52.124;5.196;2022-08-19T07:50:32;37.70;;;25.50;;
20731;SDS011;10527;52.124;5.196;2022-08-19T07:53:00;39.55;;;25.23;;
20731;SDS011;10527;52.124;5.196;2022-08-19T07:55:27;38.90;;;23.92;;
20731;SDS011;10527;52.124;5.196;2022-08-19T07:58:08;35.25;;;23.15;;
20731;SDS011;10527;52.124;5.196;2022-08-19T08:00:37;36.50;;;24.55;;
20731;SDS011;10527;52.124;5.196;2022-08-19T08:03:04;36.47;;;23.10;;
20731;SDS011;10527;52.124;5.196;2022-08-19T08:05:31;33.72;;;23.45;;
20731;SDS011;10527;52.124;5.196;2022-08-19T08:08:17;37.25;;;24.73;;
20731;SDS011;10527;52.124;5.196;2022-08-19T08:11:09;40.53;;;25.80;;
20731;SDS011;10527;52.124;5.196;2022-08-19T08:13:40;35.60;;;25.38;;
20731;SDS011;10527;52.124;5.196;2022-08-19T08:16:08;34.60;;;23.10;;
20731;SDS011;10527;52.124;5.196;2022-08-19T08:18:39;40.38;;;24.65;;
20731;SDS011;10527;52.124;5.196;2022-08-19T08:21:08;35.42;;;23.17;;
20731;SDS011;10527;52.124;5.196;2022-08-19T08:23:35;31.70;;;23.52;;
20731;SDS011;10527;52.124;5.196;2022-08-19T08:26:04;29.65;;;22.85;;
20731;SDS011;10527;52.124;5.196;2022-08-19T08:28:31;37.25;;;23.80;;
20731;SDS011;10527;52.124;5.196;2022-08-19T08:30:58;39.08;;;23.98;;
20731;SDS011;10527;52.124;5.196;2022-08-19T08:33:27;28.77;;;21.95;;
20731;SDS011;10527;52.124;5.196;2022-08-19T08:36:06;34.65;;;23.60;;
20731;SDS011;10527;52.124;5.196;2022-08-19T08:38:35;30.35;;;22.02;;
20731;SDS011;10527;52.124;5.196;2022-08-19T08:41:09;32.58;;;23.38;;
20731;SDS011;10527;52.124;5.196;2022-08-19T08:43:46;28.27;;;22.55;;
20731;SDS011;10527;52.124;5.196;2022-08-19T08:46:21;26.13;;;20.25;;
20731;SDS011;10527;52.124;5.196;2022-08-19T08:51:44;26.33;;;22.15;;
20731;SDS011;10527;52.124;5.196;2022-08-19T08:54:26;28.63;;;20.98;;
20731;SDS011;10527;52.124;5.196;2022-08-19T08:57:02;26.35;;;19.75;;
20731;SDS011;10527;52.124;5.196;2022-08-19T08:59:38;23.98;;;19.90;;
20731;SDS011;10527;52.124;5.196;2022-08-19T09:02:09;24.73;;;20.92;;
20731;SDS011;10527;52.124;5.196;2022-08-19T09:04:36;22.88;;;18.42;;
20731;SDS011;10527;52.124;5.196;2022-08-19T09:16:28;20.00;;;16.83;;
20731;SDS011;10527;52.124;5.196;2022-08-19T09:19:03;20.35;;;16.55;;
20731;SDS011;10527;52.124;5.196;2022-08-19T09:21:33;20.85;;;16.33;;
20731;SDS011;10527;52.124;5.196;2022-08-19T09:24:06;20.20;;;14.93;;
20731;SDS011;10527;52.124;5.196;2022-08-19T09:26:33;17.17;;;13.75;;
20731;SDS011;10527;52.124;5.196;2022-08-19T09:29:18;21.25;;;14.13;;
20731;SDS011;10527;52.124;5.196;2022-08-19T09:31:47;20.42;;;14.27;;
20731;SDS011;10527;52.124;5.196;2022-08-19T09:34:16;16.58;;;13.80;;
20731;SDS011;10527;52.124;5.196;2022-08-19T09:36:47;20.33;;;13.73;;
20731;SDS011;10527;52.124;5.196;2022-08-19T09:39:19;18.38;;;15.77;;
20731;SDS011;10527;52.124;5.196;2022-08-19T09:41:47;20.92;;;15.50;;
20731;SDS011;10527;52.124;5.196;2022-08-19T09:44:15;21.75;;;16.77;;
20731;SDS011;10527;52.124;5.196;2022-08-19T09:46:44;21.25;;;15.20;;
20731;SDS011;10527;52.124;5.196;2022-08-19T09:49:14;18.05;;;15.73;;
20731;SDS011;10527;52.124;5.196;2022-08-19T09:51:51;19.65;;;16.38;;
20731;SDS011;10527;52.124;5.196;2022-08-19T09:54:22;18.80;;;15.98;;
20731;SDS011;10527;52.124;5.196;2022-08-19T09:56:51;19.58;;;15.13;;
20731;SDS011;10527;52.124;5.196;2022-08-19T09:59:19;17.17;;;13.82;;
20731;SDS011;10527;52.124;5.196;2022-08-19T10:01:47;16.42;;;13.55;;
20731;SDS011;10527;52.124;5.196;2022-08-19T10:04:14;19.92;;;15.20;;
20731;SDS011;10527;52.124;5.196;2022-08-19T10:06:48;20.15;;;15.80;;
20731;SDS011;10527;52.124;5.196;2022-08-19T10:09:18;18.40;;;15.25;;
20731;SDS011;10527;52.124;5.196;2022-08-19T10:11:59;17.20;;;14.50;;
20731;SDS011;10527;52.124;5.196;2022-08-19T10:14:29;21.90;;;15.27;;
20731;SDS011;10527;52.124;5.196;2022-08-19T10:16:57;21.73;;;16.17;;
20731;SDS011;10527;52.124;5.196;2022-08-19T10:19:26;18.52;;;15.70;;
20731;SDS011;10527;52.124;5.196;2022-08-19T10:21:54;20.45;;;15.38;;
20731;SDS011;10527;52.124;5.196;2022-08-19T10:24:25;22.15;;;16.67;;
20731;SDS011;10527;52.124;5.196;2022-08-19T10:26:53;21.30;;;16.15;;
20731;SDS011;10527;52.124;5.196;2022-08-19T10:29:22;22.38;;;15.98;;
20731;SDS011;10527;52.124;5.196;2022-08-19T10:31:59;17.70;;;15.77;;
20731;SDS011;10527;52.124;5.196;2022-08-19T10:34:36;18.38;;;15.73;;
20731;SDS011;10527;52.124;5.196;2022-08-19T10:37:14;20.92;;;16.20;;
20731;SDS011;10527;52.124;5.196;2022-08-19T10:39:54;19.02;;;15.50;;
20731;SDS011;10527;52.124;5.196;2022-08-19T10:42:21;23.00;;;14.63;;
20731;SDS011;10527;52.124;5.196;2022-08-19T10:44:48;21.55;;;16.92;;
20731;SDS011;10527;52.124;5.196;2022-08-19T10:47:17;17.92;;;15.93;;
20731;SDS011;10527;52.124;5.196;2022-08-19T10:49:54;22.35;;;15.80;;
20731;SDS011;10527;52.124;5.196;2022-08-19T10:52:41;17.20;;;14.07;;
20731;SDS011;10527;52.124;5.196;2022-08-19T10:55:15;18.50;;;14.75;;
20731;SDS011;10527;52.124;5.196;2022-08-19T10:58:17;22.33;;;17.25;;
20731;SDS011;10527;52.124;5.196;2022-08-19T11:00:54;17.77;;;15.07;;
20731;SDS011;10527;52.124;5.196;2022-08-19T11:03:24;16.88;;;15.13;;
20731;SDS011;10527;52.124;5.196;2022-08-19T11:06:03;19.17;;;15.88;;
20731;SDS011;10527;52.124;5.196;2022-08-19T11:08:33;18.33;;;13.95;;
20731;SDS011;10527;52.124;5.196;2022-08-19T11:11:04;16.60;;;14.27;;
20731;SDS011;10527;52.124;5.196;2022-08-19T11:13:34;20.50;;;15.20;;
20731;SDS011;10527;52.124;5.196;2022-08-19T11:16:09;16.70;;;14.25;;
20731;SDS011;10527;52.124;5.196;2022-08-19T11:18:41;20.58;;;17.33;;
20731;SDS011;10527;52.124;5.196;2022-08-19T11:21:22;15.18;;;13.57;;
20731;SDS011;10527;52.124;5.196;2022-08-19T11:23:59;20.00;;;14.40;;
20731;SDS011;10527;52.124;5.196;2022-08-19T11:26:32;17.10;;;14.95;;
20731;SDS011;10527;52.124;5.196;2022-08-19T11:29:00;19.25;;;14.55;;
20731;SDS011;10527;52.124;5.196;2022-08-19T11:31:31;16.13;;;13.05;;
20731;SDS011;10527;52.124;5.196;2022-08-19T11:34:02;20.52;;;12.63;;
20731;SDS011;10527;52.124;5.196;2022-08-19T11:36:31;19.48;;;13.63;;
20731;SDS011;10527;52.124;5.196;2022-08-19T11:39:03;16.40;;;14.00;;
20731;SDS011;10527;52.124;5.196;2022-08-19T11:41:35;21.25;;;15.52;;
20731;SDS011;10527;52.124;5.196;2022-08-19T11:44:03;17.55;;;14.45;;
20731;SDS011;10527;52.124;5.196;2022-08-19T11:46:30;18.92;;;15.18;;
20731;SDS011;10527;52.124;5.196;2022-08-19T11:48:58;18.38;;;13.85;;
20731;SDS011;10527;52.124;5.196;2022-08-19T11:51:27;15.85;;;13.90;;
20731;SDS011;10527;52.124;5.196;2022-08-19T11:53:55;16.13;;;13.15;;
20731;SDS011;10527;52.124;5.196;2022-08-19T11:56:25;17.27;;;13.48;;
20731;SDS011;10527;52.124;5.196;2022-08-19T11:58:54;18.95;;;14.88;;
20731;SDS011;10527;52.124;5.196;2022-08-19T12:01:25;16.05;;;14.35;;
20731;SDS011;10527;52.124;5.196;2022-08-19T12:03:53;18.20;;;15.00;;
20731;SDS011;10527;52.124;5.196;2022-08-19T12:06:23;16.30;;;13.38;;
20731;SDS011;10527;52.124;5.196;2022-08-19T12:08:58;14.13;;;11.25;;
20731;SDS011;10527;52.124;5.196;2022-08-19T12:11:30;15.05;;;10.05;;
20731;SDS011;10527;52.124;5.196;2022-08-19T12:13:59;15.25;;;10.15;;
20731;SDS011;10527;52.124;5.196;2022-08-19T12:16:28;12.77;;;8.95;;
20731;SDS011;10527;52.124;5.196;2022-08-19T12:18:58;13.38;;;9.57;;
20731;SDS011;10527;52.124;5.196;2022-08-19T12:21:30;13.35;;;9.32;;
20731;SDS011;10527;52.124;5.196;2022-08-19T12:24:01;12.00;;;8.18;;
20731;SDS011;10527;52.124;5.196;2022-08-19T12:26:31;10.20;;;9.18;;
20731;SDS011;10527;52.124;5.196;2022-08-19T12:29:01;12.40;;;8.85;;
20731;SDS011;10527;52.124;5.196;2022-08-19T12:31:28;9.93;;;6.45;;
20731;SDS011;10527;52.124;5.196;2022-08-19T12:33:56;7.20;;;5.18;;
20731;SDS011;10527;52.124;5.196;2022-08-19T12:36:23;9.05;;;5.38;;
20731;SDS011;10527;52.124;5.196;2022-08-19T12:38:52;6.15;;;4.78;;
20731;SDS011;10527;52.124;5.196;2022-08-19T12:41:19;9.75;;;4.93;;
20731;SDS011;10527;52.124;5.196;2022-08-19T12:43:48;8.63;;;5.70;;
20731;SDS011;10527;52.124;5.196;2022-08-19T12:46:17;9.25;;;5.28;;
20731;SDS011;10527;52.124;5.196;2022-08-19T12:48:48;9.65;;;7.55;;
20731;SDS011;10527;52.124;5.196;2022-08-19T12:51:20;8.07;;;7.28;;
20731;SDS011;10527;52.124;5.196;2022-08-19T12:53:47;13.30;;;7.28;;
20731;SDS011;10527;52.124;5.196;2022-08-19T12:56:15;9.23;;;7.72;;
20731;SDS011;10527;52.124;5.196;2022-08-19T12:58:48;13.40;;;8.85;;
20731;SDS011;10527;52.124;5.196;2022-08-19T13:01:19;9.00;;;7.88;;
20731;SDS011;10527;52.124;5.196;2022-08-19T13:03:49;12.93;;;7.15;;
20731;SDS011;10527;52.124;5.196;2022-08-19T13:06:18;7.72;;;6.43;;
20731;SDS011;10527;52.124;5.196;2022-08-19T13:08:45;7.72;;;5.38;;
20731;SDS011;10527;52.124;5.196;2022-08-19T13:11:17;5.55;;;4.82;;
20731;SDS011;10527;52.124;5.196;2022-08-19T13:13:47;5.30;;;4.43;;
20731;SDS011;10527;52.124;5.196;2022-08-19T13:16:17;5.75;;;4.50;;
20731;SDS011;10527;52.124;5.196;2022-08-19T13:18:46;4.40;;;4.00;;
20731;SDS011;10527;52.124;5.196;2022-08-19T13:21:14;6.68;;;4.45;;
20731;SDS011;10527;52.124;5.196;2022-08-19T13:23:41;4.72;;;4.07;;
20731;SDS011;10527;52.124;5.196;2022-08-19T13:26:09;4.93;;;4.05;;
20731;SDS011;10527;52.124;5.196;2022-08-19T13:28:39;5.25;;;3.92;;
20731;SDS011;10527;52.124;5.196;2022-08-19T13:31:26;6.28;;;4.85;;
20731;SDS011;10527;52.124;5.196;2022-08-19T13:34:14;5.40;;;4.57;;
20731;SDS011;10527;52.124;5.196;2022-08-19T13:36:45;5.57;;;3.78;;
20731;SDS011;10527;52.124;5.196;2022-08-19T13:39:12;5.30;;;4.32;;
20731;SDS011;10527;52.124;5.196;2022-08-19T13:41:42;5.72;;;4.00;;
20731;SDS011;10527;52.124;5.196;2022-08-19T13:44:17;8.40;;;4.78;;
20731;SDS011;10527;52.124;5.196;2022-08-19T13:46:46;11.20;;;5.32;;
20731;SDS011;10527;52.124;5.196;2022-08-19T13:49:20;4.57;;;3.90;;
20731;SDS011;10527;52.124;5.196;2022-08-19T13:51:49;6.70;;;4.05;;
20731;SDS011;10527;52.124;5.196;2022-08-19T13:54:16;5.35;;;3.78;;
20731;SDS011;10527;52.124;5.196;2022-08-19T13:56:43;5.28;;;3.58;;
20731;SDS011;10527;52.124;5.196;2022-08-19T13:59:11;6.00;;;4.30;;
20731;SDS011;10527;52.124;5.196;2022-08-19T14:01:39;6.65;;;4.43;;
20731;SDS011;10527;52.124;5.196;2022-08-19T14:04:07;6.65;;;4.28;;
20731;SDS011;10527;52.124;5.196;2022-08-19T14:06:35;5.88;;;3.60;;
20731;SDS011;10527;52.124;5.196;2022-08-19T14:09:02;6.88;;;4.18;;
20731;SDS011;10527;52.124;5.196;2022-08-19T14:11:30;4.07;;;2.78;;
20731;SDS011;10527;52.124;5.196;2022-08-19T14:13:57;3.90;;;2.88;;
20731;SDS011;10527;52.124;5.196;2022-08-19T14:16:24;4.65;;;2.67;;
20731;SDS011;10527;52.124;5.196;2022-08-19T14:18:51;6.38;;;2.50;;
20731;SDS011;10527;52.124;5.196;2022-08-19T14:21:19;5.13;;;2.42;;
20731;SDS011;10527;52.124;5.196;2022-08-19T14:23:49;4.30;;;2.20;;
20731;SDS011;10527;52.124;5.196;2022-08-19T14:26:17;4.70;;;2.53;;
20731;SDS011;10527;52.124;5.196;2022-08-19T14:28:46;5.20;;;2.75;;
20731;SDS011;10527;52.124;5.196;2022-08-19T14:31:15;6.18;;;2.58;;
20731;SDS011;10527;52.124;5.196;2022-08-19T14:33:46;3.40;;;2.70;;
20731;SDS011;10527;52.124;5.196;2022-08-19T14:36:14;3.00;;;2.70;;
20731;SDS011;10527;52.124;5.196;2022-08-19T14:38:41;3.42;;;2.45;;
20731;SDS011;10527;52.124;5.196;2022-08-19T14:41:16;3.78;;;2.45;;
20731;SDS011;10527;52.124;5.196;2022-08-19T14:43:48;3.72;;;2.53;;
20731;SDS011;10527;52.124;5.196;2022-08-19T14:46:19;2.33;;;2.10;;
20731;SDS011;10527;52.124;5.196;2022-08-19T14:48:53;2.42;;;2.20;;
20731;SDS011;10527;52.124;5.196;2022-08-19T14:51:22;2.30;;;2.05;;
20731;SDS011;10527;52.124;5.196;2022-08-19T14:53:50;3.58;;;1.95;;
20731;SDS011;10527;52.124;5.196;2022-08-19T14:56:19;2.20;;;1.80;;
20731;SDS011;10527;52.124;5.196;2022-08-19T14:58:50;5.65;;;1.80;;
20731;SDS011;10527;52.124;5.196;2022-08-19T15:01:19;3.10;;;1.85;;
20731;SDS011;10527;52.124;5.196;2022-08-19T15:03:58;2.90;;;1.60;;
20731;SDS011;10527;52.124;5.196;2022-08-19T15:06:25;1.95;;;1.13;;
20731;SDS011;10527;52.124;5.196;2022-08-19T15:08:58;1.42;;;1.33;;
20731;SDS011;10527;52.124;5.196;2022-08-19T15:11:29;2.60;;;1.35;;
20731;SDS011;10527;52.124;5.196;2022-08-19T15:13:58;1.30;;;1.20;;
20731;SDS011;10527;52.124;5.196;2022-08-19T15:16:28;1.30;;;1.15;;